createdAt,value
2022-10-23T00:01:39.561Z,87.02
2022-10-23T00:04:10.842Z,87.05
2022-10-23T00:06:37.712Z,87.06
2022-10-23T00:09:06.105Z,86.95
2022-10-23T00:11:34.414Z,87.17
2022-10-23T00:14:02.816Z,87.02
2022-10-23T00:16:30.466Z,87.01
2022-10-23T00:18:58.025Z,87.07
2022-10-23T00:21:25.547Z,86.86
2022-10-23T00:23:52.685Z,87.07
2022-10-23T00:26:19.927Z,87.04
2022-10-23T00:28:50.218Z,86.85
2022-10-23T00:31:18.171Z,87.15
2022-10-23T00:33:45.083Z,86.71
2022-10-23T00:36:13.992Z,86.90
2022-10-23T00:38:45.530Z,86.61
2022-10-23T00:41:20.969Z,86.37
2022-10-23T00:44:05.541Z,86.17
2022-10-23T00:46:33.634Z,86.08
2022-10-23T00:49:01.382Z,86.18
2022-10-23T00:51:33.622Z,86.08
2022-10-23T00:54:22.997Z,86.04
2022-10-23T00:56:49.974Z,85.95
2022-10-23T00:59:16.842Z,85.65
2022-10-23T01:01:43.823Z,85.89
2022-10-23T01:04:11.481Z,85.79
2022-10-23T01:06:43.518Z,85.55
2022-10-23T01:09:25.924Z,85.48
2022-10-23T01:12:01.099Z,85.63
2022-10-23T01:14:43.008Z,85.36
2022-10-23T01:17:15.647Z,85.33
2022-10-23T01:19:59.668Z,85.40
2022-10-23T01:22:51.681Z,85.27
2022-10-23T01:25:29.663Z,85.52
2022-10-23T01:28:03.022Z,85.69
2022-10-23T01:30:33.737Z,85.78
2022-10-23T01:33:13.156Z,85.93
2022-10-23T01:35:52.763Z,85.73
2022-10-23T01:38:29.103Z,85.86
2022-10-23T01:41:07.431Z,85.83
2022-10-23T01:43:44.211Z,85.65
2022-10-23T01:46:15.361Z,85.83
2022-10-23T01:48:48.780Z,85.68
2022-10-23T01:51:17.593Z,85.56
2022-10-23T01:53:48.551Z,85.35
2022-10-23T01:56:21.862Z,85.30
2022-10-23T01:58:52.618Z,85.72
2022-10-23T02:01:24.502Z,85.53
2022-10-23T02:03:53.774Z,85.76
2022-10-23T02:06:20.535Z,85.94
2022-10-23T02:08:47.593Z,85.92
2022-10-23T02:11:18.618Z,85.78
2022-10-23T02:13:53.684Z,85.78
2022-10-23T02:16:41.436Z,85.61
2022-10-23T02:19:21.655Z,85.79
2022-10-23T02:22:03.750Z,85.64
2022-10-23T02:24:41.604Z,85.61
2022-10-23T02:27:14.342Z,85.84
2022-10-23T02:29:47.074Z,85.97
2022-10-23T02:32:17.925Z,86.17
2022-10-23T02:34:48.092Z,86.48
2022-10-23T02:37:15.956Z,86.37
2022-10-23T02:39:42.912Z,86.76
2022-10-23T02:42:29.361Z,86.84
2022-10-23T02:45:09.270Z,86.85
2022-10-23T02:47:51.661Z,87.17
2022-10-23T02:50:33.210Z,86.99
2022-10-23T02:53:28.129Z,87.20
2022-10-23T02:56:13.561Z,87.35
2022-10-23T02:59:03.370Z,87.48
2022-10-23T03:01:43.714Z,87.58
2022-10-23T03:04:12.557Z,87.79
2022-10-23T03:06:39.570Z,87.79
2022-10-23T03:09:09.262Z,87.74
2022-10-23T03:11:36.558Z,87.92
2022-10-23T03:14:03.358Z,88.03
2022-10-23T03:16:31.476Z,88.11
2022-10-23T03:18:58.263Z,88.02
2022-10-23T03:21:25.286Z,88.10
2022-10-23T03:23:53.021Z,88.21
2022-10-23T03:26:26.411Z,88.34
2022-10-23T03:28:53.583Z,88.05
2022-10-23T03:31:21.384Z,88.19
2022-10-23T03:33:49.635Z,87.89
2022-10-23T03:36:16.603Z,87.63
2022-10-23T03:38:44.202Z,87.52
2022-10-23T03:41:10.976Z,87.27
2022-10-23T03:43:37.723Z,87.49
2022-10-23T03:46:09.693Z,87.47
2022-10-23T03:48:38.455Z,87.48
2022-10-23T03:51:06.209Z,87.58
2022-10-23T03:53:32.947Z,87.59
2022-10-23T03:56:01.731Z,87.68
2022-10-23T03:58:28.702Z,87.61
2022-10-23T04:00:55.920Z,87.52
2022-10-23T04:03:23.319Z,87.27
2022-10-23T04:05:52.232Z,87.33
2022-10-23T04:08:21.487Z,87.36
2022-10-23T04:10:51.151Z,87.26
2022-10-23T04:13:20.870Z,87.50
2022-10-23T04:15:50.242Z,87.12
2022-10-23T04:18:17.589Z,86.99
2022-10-23T04:20:47.091Z,87.27
2022-10-23T04:23:13.926Z,87.00
2022-10-23T04:25:42.015Z,87.27
2022-10-23T04:28:08.914Z,87.02
2022-10-23T04:30:38.761Z,86.90
2022-10-23T04:33:05.902Z,86.82
2022-10-23T04:35:33.553Z,86.50
2022-10-23T04:38:00.274Z,86.41
2022-10-23T04:40:26.991Z,86.55
2022-10-23T04:42:54.676Z,86.65
2022-10-23T04:45:21.726Z,86.48
2022-10-23T04:47:48.505Z,85.85
2022-10-23T04:50:15.777Z,85.74
2022-10-23T04:52:58.289Z,85.97
2022-10-23T04:55:40.063Z,85.70
2022-10-23T04:58:12.026Z,85.82
2022-10-23T05:00:38.741Z,85.96
2022-10-23T05:03:05.613Z,85.85
2022-10-23T05:05:39.331Z,85.87
2022-10-23T05:08:24.772Z,85.59
2022-10-23T05:11:06.803Z,85.79
2022-10-23T05:13:38.574Z,85.58
2022-10-23T05:16:05.673Z,85.41
2022-10-23T05:18:39.205Z,85.42
2022-10-23T05:21:13.531Z,85.34
2022-10-23T05:23:42.950Z,85.51
2022-10-23T05:26:09.794Z,85.32
2022-10-23T05:28:37.938Z,85.38
2022-10-23T05:31:06.159Z,85.54
2022-10-23T05:33:36.607Z,85.51
2022-10-23T05:36:03.829Z,85.61
2022-10-23T05:38:34.845Z,85.41
2022-10-23T05:41:06.494Z,85.52
2022-10-23T05:43:33.242Z,85.42
2022-10-23T05:46:09.411Z,85.43
2022-10-23T05:48:52.499Z,85.39
2022-10-23T05:51:37.007Z,85.12
2022-10-23T05:54:21.786Z,85.27
2022-10-23T05:56:58.523Z,85.18
2022-10-23T05:59:32.476Z,85.21
2022-10-23T06:02:12.759Z,84.77
2022-10-23T06:04:47.821Z,84.76
2022-10-23T06:07:33.716Z,84.84
2022-10-23T06:10:05.538Z,84.89
2022-10-23T06:12:33.943Z,85.03
2022-10-23T06:15:00.998Z,84.98
2022-10-23T06:17:42.789Z,85.19
2022-10-23T06:20:10.206Z,85.11
2022-10-23T06:22:39.166Z,85.26
2022-10-23T06:25:18.772Z,85.07
2022-10-23T06:27:45.848Z,84.95
2022-10-23T06:30:13.404Z,85.03
2022-10-23T06:32:40.501Z,84.80
2022-10-23T06:35:11.506Z,84.92
2022-10-23T06:37:38.981Z,84.71
2022-10-23T06:40:10.731Z,84.55
2022-10-23T06:42:50.888Z,84.80
2022-10-23T06:45:34.209Z,84.63
2022-10-23T06:48:21.023Z,84.59
2022-10-23T06:50:47.701Z,84.57
2022-10-23T06:53:20.095Z,84.18
2022-10-23T06:55:55.338Z,84.09
2022-10-23T06:58:22.784Z,84.49
2022-10-23T07:01:04.405Z,84.37
2022-10-23T07:03:31.984Z,83.78
2022-10-23T07:06:02.041Z,83.46
2022-10-23T07:08:29.570Z,83.00
2022-10-23T07:10:56.936Z,82.63
2022-10-23T07:13:25.244Z,82.62
2022-10-23T07:15:58.243Z,82.02
2022-10-23T07:18:25.964Z,81.87
2022-10-23T07:21:08.659Z,80.98
2022-10-23T07:23:37.177Z,80.95
2022-10-23T07:26:06.389Z,80.32
2022-10-23T07:28:34.482Z,77.59
2022-10-23T07:31:02.235Z,76.04
2022-10-23T07:33:50.338Z,75.14
2022-10-23T07:36:19.515Z,74.78
2022-10-23T07:38:46.832Z,74.41
2022-10-23T07:41:13.658Z,74.29
2022-10-23T07:43:40.814Z,74.26
2022-10-23T07:46:09.956Z,74.38
2022-10-23T07:48:40.068Z,74.24
2022-10-23T07:51:13.419Z,74.28
2022-10-23T07:53:44.749Z,73.51
2022-10-23T07:56:26.369Z,73.48
2022-10-23T07:59:13.630Z,72.53
2022-10-23T08:01:43.442Z,71.67
2022-10-23T08:04:11.203Z,71.96
2022-10-23T08:06:44.266Z,70.82
2022-10-23T08:09:11.261Z,69.99
2022-10-23T08:11:38.857Z,71.08
2022-10-23T08:14:08.256Z,70.88
2022-10-23T08:16:38.339Z,70.78
2022-10-23T08:19:07.869Z,70.84
2022-10-23T08:21:36.197Z,71.08
2022-10-23T08:24:03.431Z,71.37
2022-10-23T08:26:31.052Z,70.93
2022-10-23T08:28:59.636Z,70.92
2022-10-23T08:31:27.261Z,71.44
2022-10-23T08:34:09.475Z,71.64
2022-10-23T08:36:39.435Z,72.26
2022-10-23T08:39:06.841Z,72.10
2022-10-23T08:41:37.762Z,72.13
2022-10-23T08:44:24.991Z,71.70
2022-10-23T08:47:02.038Z,71.52
2022-10-23T08:49:51.820Z,70.94
2022-10-23T08:52:30.243Z,71.60
2022-10-23T08:55:12.649Z,72.12
2022-10-23T08:57:47.861Z,71.58
2022-10-23T09:00:16.867Z,71.42
2022-10-23T09:02:47.876Z,70.95
2022-10-23T09:05:19.493Z,70.56
2022-10-23T09:08:17.544Z,70.38
2022-10-23T09:11:15.669Z,71.07
2022-10-23T09:13:49.459Z,71.35
2022-10-23T09:16:44.697Z,70.58
2022-10-23T09:19:16.175Z,70.14
2022-10-23T09:21:47.354Z,71.15
2022-10-23T09:24:18.019Z,70.61
2022-10-23T09:26:48.450Z,70.21
2022-10-23T09:29:36.226Z,70.52
2022-10-23T09:32:06.847Z,68.64
2022-10-23T09:34:35.178Z,67.92
2022-10-23T09:37:17.745Z,67.39
2022-10-23T09:39:47.000Z,66.12
2022-10-23T09:42:22.419Z,66.18
2022-10-23T09:44:52.258Z,66.30
2022-10-23T09:47:21.329Z,65.51
2022-10-23T09:49:51.604Z,65.69
2022-10-23T09:52:18.332Z,65.01
2022-10-23T09:54:48.613Z,63.38
2022-10-23T09:57:32.020Z,63.63
2022-10-23T10:00:04.172Z,62.93
2022-10-23T10:02:38.975Z,63.42
2022-10-23T10:05:22.370Z,63.76
2022-10-23T10:08:12.241Z,63.96
2022-10-23T10:10:45.395Z,65.03
2022-10-23T10:13:38.460Z,64.63
2022-10-23T10:16:20.787Z,64.52
2022-10-23T10:19:17.341Z,64.42
2022-10-23T10:22:09.057Z,63.07
2022-10-23T10:24:52.291Z,63.01
2022-10-23T10:27:46.411Z,62.89
2022-10-23T10:30:18.464Z,62.40
2022-10-23T10:32:52.563Z,62.26
2022-10-23T10:35:23.398Z,62.32
2022-10-23T10:37:50.618Z,62.50
2022-10-23T10:40:35.444Z,62.69
2022-10-23T10:43:24.172Z,62.58
2022-10-23T10:46:06.106Z,62.92
2022-10-23T10:48:48.623Z,61.91
2022-10-23T10:51:50.719Z,61.74
2022-10-23T10:54:48.834Z,61.89
2022-10-23T10:57:34.105Z,61.54
2022-10-23T11:00:07.221Z,60.95
2022-10-23T11:02:45.065Z,61.01
2022-10-23T11:05:19.209Z,60.47
2022-10-23T11:08:10.116Z,60.24
2022-10-23T11:10:41.183Z,59.80
2022-10-23T11:13:24.827Z,59.70
2022-10-23T11:15:54.989Z,59.29
2022-10-23T11:18:28.582Z,58.91
2022-10-23T11:21:00.393Z,58.23
2022-10-23T11:23:42.583Z,58.36
2022-10-23T11:26:10.407Z,57.65
2022-10-23T11:28:37.121Z,57.13
2022-10-23T11:31:21.790Z,56.82
2022-10-23T11:34:04.216Z,57.78
2022-10-23T11:36:55.030Z,57.05
2022-10-23T11:39:26.881Z,57.39
2022-10-23T11:42:12.641Z,57.44
2022-10-23T11:44:43.543Z,57.52
2022-10-23T11:47:32.025Z,56.59
2022-10-23T11:50:09.345Z,56.27
2022-10-23T11:52:45.615Z,57.14
2022-10-23T11:55:21.190Z,57.21
2022-10-23T11:58:14.585Z,57.83
2022-10-23T12:00:54.327Z,58.10
2022-10-23T12:03:29.071Z,58.17
2022-10-23T12:06:01.940Z,58.19
2022-10-23T12:08:32.690Z,58.48
2022-10-23T12:11:02.141Z,58.54
2022-10-23T12:13:32.768Z,58.51
2022-10-23T12:16:00.964Z,58.63
2022-10-23T12:18:28.452Z,58.35
2022-10-23T12:20:58.660Z,58.82
2022-10-23T12:23:51.073Z,58.82
2022-10-23T12:26:22.945Z,58.52
2022-10-23T12:29:17.364Z,57.60
2022-10-23T12:32:08.229Z,55.41
2022-10-23T12:35:08.100Z,52.74
2022-10-23T12:37:58.138Z,51.30
2022-10-23T12:40:29.951Z,49.91
2022-10-23T12:42:59.526Z,49.44
2022-10-23T12:45:30.007Z,49.44
2022-10-23T12:47:56.756Z,49.12
2022-10-23T12:50:25.045Z,47.66
2022-10-23T12:52:54.038Z,47.04
2022-10-23T12:55:21.940Z,45.92
2022-10-23T12:57:48.727Z,45.70
2022-10-23T13:00:19.934Z,46.25
2022-10-23T13:02:47.005Z,45.30
2022-10-23T13:05:20.109Z,45.50
2022-10-23T13:07:48.721Z,46.06
2022-10-23T13:10:20.744Z,46.20
2022-10-23T13:13:05.020Z,46.38
2022-10-23T13:15:40.251Z,46.71
2022-10-23T13:18:08.553Z,47.20
2022-10-23T13:20:41.131Z,47.86
2022-10-23T13:23:07.906Z,48.16
2022-10-23T13:25:36.796Z,49.09
2022-10-23T13:28:15.011Z,49.47
2022-10-23T13:30:46.550Z,49.99
2022-10-23T13:33:15.672Z,49.58
2022-10-23T13:35:42.439Z,50.22
2022-10-23T13:38:11.948Z,50.42
2022-10-23T13:40:38.711Z,49.60
2022-10-23T13:43:14.563Z,49.38
2022-10-23T13:45:41.605Z,49.54
2022-10-23T13:48:13.892Z,50.12
2022-10-23T13:50:40.848Z,50.72
2022-10-23T13:53:12.563Z,50.87
2022-10-23T13:55:42.885Z,51.48
2022-10-23T13:58:10.599Z,52.30
2022-10-23T14:00:38.936Z,52.61
2022-10-23T14:03:05.782Z,52.15
2022-10-23T14:05:32.493Z,51.70
2022-10-23T14:07:59.323Z,51.88
2022-10-23T14:10:27.752Z,52.18
2022-10-23T14:12:55.114Z,52.49
2022-10-23T14:15:22.360Z,53.15
2022-10-23T14:17:49.207Z,53.72
2022-10-23T14:20:19.006Z,53.91
2022-10-23T14:22:46.518Z,54.27
2022-10-23T14:25:13.502Z,54.17
2022-10-23T14:27:40.342Z,53.99
2022-10-23T14:30:08.130Z,54.00
2022-10-23T14:32:34.975Z,54.22
2022-10-23T14:35:03.938Z,54.61
2022-10-23T14:37:31.537Z,54.80
2022-10-23T14:39:58.988Z,55.02
2022-10-23T14:42:30.528Z,55.28
2022-10-23T14:45:02.844Z,56.03
2022-10-23T14:47:31.701Z,56.70
2022-10-23T14:49:58.408Z,57.15
2022-10-23T14:52:25.205Z,57.78
2022-10-23T14:54:53.604Z,58.14
2022-10-23T14:57:22.163Z,59.04
2022-10-23T14:59:49.767Z,59.60
2022-10-23T15:02:17.607Z,60.22
2022-10-23T15:04:44.540Z,60.69
2022-10-23T15:07:11.496Z,61.18
2022-10-23T15:09:39.735Z,61.69
2022-10-23T15:12:07.879Z,62.12
2022-10-23T15:14:35.215Z,62.62
2022-10-23T15:17:03.026Z,63.25
2022-10-23T15:19:30.080Z,63.61
2022-10-23T15:21:57.077Z,64.27
2022-10-23T15:24:23.966Z,64.86
2022-10-23T15:26:51.811Z,65.77
2022-10-23T15:29:19.716Z,66.47
2022-10-23T15:31:53.266Z,67.09
2022-10-23T15:34:23.789Z,67.85
2022-10-23T15:36:52.608Z,68.32
2022-10-23T15:39:22.867Z,69.18
2022-10-23T15:41:53.580Z,70.22
2022-10-23T15:44:22.360Z,71.32
2022-10-23T15:46:49.888Z,72.06
2022-10-23T15:49:17.579Z,72.23
2022-10-23T15:51:44.402Z,72.05
2022-10-23T15:54:16.647Z,72.09
2022-10-23T15:56:44.728Z,71.87
2022-10-23T15:59:11.554Z,71.98
2022-10-23T16:01:38.574Z,72.02
2022-10-23T16:04:05.840Z,72.13
2022-10-23T16:06:32.915Z,71.89
2022-10-23T16:08:59.706Z,71.97
2022-10-23T16:11:29.823Z,72.29
2022-10-23T16:13:58.473Z,72.60
2022-10-23T16:16:27.053Z,72.44
2022-10-23T16:18:53.927Z,72.39
2022-10-23T16:21:24.828Z,73.16
2022-10-23T16:23:53.268Z,74.64
2022-10-23T16:26:21.070Z,75.02
2022-10-23T16:28:47.962Z,75.60
2022-10-23T16:31:20.057Z,75.32
2022-10-23T16:33:48.424Z,74.68
2022-10-23T16:36:15.750Z,74.98
2022-10-23T16:38:57.999Z,75.26
2022-10-23T16:41:45.246Z,75.70
2022-10-23T16:44:18.398Z,75.84
2022-10-23T16:47:00.718Z,75.15
2022-10-23T16:49:29.799Z,75.08
2022-10-23T16:51:56.647Z,74.98
2022-10-23T16:54:23.376Z,75.77
2022-10-23T16:56:50.254Z,76.84
2022-10-23T16:59:17.059Z,76.93
2022-10-23T17:01:44.017Z,76.65
2022-10-23T17:04:10.858Z,76.75
2022-10-23T17:06:37.669Z,76.51
2022-10-23T17:09:06.355Z,76.71
2022-10-23T17:11:38.408Z,76.84
2022-10-23T17:14:07.858Z,77.01
2022-10-23T17:16:40.269Z,76.72
2022-10-23T17:19:20.851Z,77.14
2022-10-23T17:21:57.952Z,77.13
2022-10-23T17:24:25.075Z,77.27
2022-10-23T17:26:52.012Z,77.03
2022-10-23T17:29:23.318Z,76.98
2022-10-23T17:31:53.435Z,77.44
2022-10-23T17:34:22.620Z,77.66
2022-10-23T17:36:52.890Z,77.77
2022-10-23T17:39:23.431Z,78.34
2022-10-23T17:41:50.764Z,79.23
2022-10-23T17:44:20.516Z,79.74
2022-10-23T17:46:53.262Z,81.05
2022-10-23T17:49:21.057Z,81.98
2022-10-23T17:51:57.734Z,82.06
2022-10-23T17:54:27.091Z,82.31
2022-10-23T17:56:53.974Z,82.52
2022-10-23T17:59:22.089Z,82.65
2022-10-23T18:01:49.609Z,82.82
2022-10-23T18:04:19.124Z,82.65
2022-10-23T18:06:49.461Z,82.11
2022-10-23T18:09:17.030Z,81.73
2022-10-23T18:11:48.118Z,81.45
2022-10-23T18:14:17.161Z,80.89
2022-10-23T18:16:45.841Z,80.56
2022-10-23T18:19:14.035Z,80.50
2022-10-23T18:21:41.563Z,80.72
2022-10-23T18:24:08.688Z,80.76
2022-10-23T18:26:37.738Z,80.58
2022-10-23T18:29:07.863Z,80.70
2022-10-23T18:31:37.466Z,81.37
2022-10-23T18:34:14.681Z,82.37
2022-10-23T18:36:42.092Z,83.19
2022-10-23T18:39:14.403Z,83.97
2022-10-23T18:41:45.122Z,84.66
2022-10-23T18:44:17.286Z,84.89
2022-10-23T18:46:45.070Z,85.14
2022-10-23T18:49:11.918Z,85.64
2022-10-23T18:51:39.822Z,85.03
2022-10-23T18:54:25.141Z,84.23
2022-10-23T18:56:52.056Z,83.46
2022-10-23T18:59:20.929Z,83.29
2022-10-23T19:01:48.693Z,82.83
2022-10-23T19:04:16.136Z,82.59
2022-10-23T19:06:43.005Z,82.61
2022-10-23T19:09:13.757Z,81.94
2022-10-23T19:11:42.112Z,81.48
2022-10-23T19:14:09.436Z,81.08
2022-10-23T19:16:43.779Z,80.96
2022-10-23T19:19:13.571Z,80.68
2022-10-23T19:21:41.741Z,80.46
2022-10-23T19:24:19.736Z,80.53
2022-10-23T19:26:49.965Z,80.58
2022-10-23T19:29:34.919Z,80.50
2022-10-23T19:32:07.192Z,80.11
2022-10-23T19:34:34.286Z,80.25
2022-10-23T19:37:01.459Z,79.67
2022-10-23T19:39:28.439Z,79.39
2022-10-23T19:41:55.357Z,79.17
2022-10-23T19:44:22.265Z,79.48
2022-10-23T19:46:49.168Z,79.37
2022-10-23T19:49:33.384Z,79.60
2022-10-23T19:52:00.142Z,79.49
2022-10-23T19:54:27.153Z,79.58
2022-10-23T19:56:53.867Z,79.77
2022-10-23T19:59:20.704Z,79.41
2022-10-23T20:01:49.034Z,79.16
2022-10-23T20:04:18.391Z,78.82
2022-10-23T20:06:46.180Z,78.97
2022-10-23T20:09:13.188Z,79.25
2022-10-23T20:11:40.855Z,79.83
2022-10-23T20:14:08.340Z,80.15
2022-10-23T20:16:37.500Z,80.25
2022-10-23T20:19:07.305Z,79.86
2022-10-23T20:21:36.236Z,79.74
2022-10-23T20:24:02.989Z,79.40
2022-10-23T20:26:30.590Z,79.25
2022-10-23T20:28:57.705Z,79.25
2022-10-23T20:31:26.215Z,79.74
2022-10-23T20:33:53.400Z,80.21
2022-10-23T20:36:37.941Z,80.77
2022-10-23T20:39:10.101Z,80.48
2022-10-23T20:41:37.578Z,80.42
2022-10-23T20:44:06.882Z,80.12
2022-10-23T20:46:34.038Z,79.82
2022-10-23T20:49:00.849Z,80.06
2022-10-23T20:51:27.836Z,80.40
2022-10-23T20:53:54.944Z,80.56
2022-10-23T20:56:30.173Z,80.65
2022-10-23T20:59:00.110Z,80.71
2022-10-23T21:01:28.329Z,80.45
2022-10-23T21:03:57.224Z,79.80
2022-10-23T21:06:25.479Z,79.45
2022-10-23T21:09:02.438Z,79.70
2022-10-23T21:11:29.408Z,79.87
2022-10-23T21:13:57.408Z,79.80
2022-10-23T21:16:28.635Z,79.57
2022-10-23T21:18:56.901Z,79.57
2022-10-23T21:21:24.848Z,79.27
2022-10-23T21:23:54.986Z,79.05
2022-10-23T21:26:24.284Z,78.91
2022-10-23T21:28:56.168Z,79.00
2022-10-23T21:31:27.826Z,79.30
2022-10-23T21:33:54.557Z,80.11
2022-10-23T21:36:24.153Z,80.63
2022-10-23T21:38:53.691Z,81.29
2022-10-23T21:41:24.059Z,80.84
2022-10-23T21:43:56.543Z,81.09
2022-10-23T21:46:24.615Z,80.47
2022-10-23T21:48:52.187Z,80.33
2022-10-23T21:51:29.553Z,79.96
2022-10-23T21:53:57.761Z,79.50
2022-10-23T21:56:30.556Z,79.75
2022-10-23T21:58:59.576Z,79.71
2022-10-23T22:01:27.310Z,80.07
2022-10-23T22:03:54.483Z,80.18
2022-10-23T22:06:25.695Z,80.23
2022-10-23T22:08:53.924Z,80.59
2022-10-23T22:11:20.893Z,81.10
2022-10-23T22:13:48.289Z,80.84
2022-10-23T22:16:16.229Z,81.17
2022-10-23T22:18:43.435Z,81.66
2022-10-23T22:21:13.210Z,81.95
2022-10-23T22:23:40.433Z,82.62
2022-10-23T22:26:10.023Z,82.72
2022-10-23T22:28:36.864Z,83.38
2022-10-23T22:31:03.561Z,83.72
2022-10-23T22:33:31.117Z,83.80
2022-10-23T22:36:02.480Z,84.37
2022-10-23T22:38:32.033Z,84.31
2022-10-23T22:41:02.039Z,84.66
2022-10-23T22:43:29.602Z,85.25
2022-10-23T22:46:13.249Z,85.26
2022-10-23T22:48:40.455Z,84.73
2022-10-23T22:51:09.141Z,84.55
2022-10-23T22:53:36.338Z,84.25
2022-10-23T22:56:07.427Z,84.26
2022-10-23T22:58:34.717Z,84.11
2022-10-23T23:01:05.890Z,84.00
2022-10-23T23:03:32.807Z,83.97
2022-10-23T23:05:59.542Z,83.68
2022-10-23T23:08:26.253Z,83.80
2022-10-23T23:10:54.590Z,84.10
2022-10-23T23:13:21.657Z,84.00
2022-10-23T23:15:48.420Z,84.20
2022-10-23T23:18:15.181Z,84.13
2022-10-23T23:20:42.089Z,84.48
2022-10-23T23:23:09.693Z,85.14
2022-10-23T23:25:49.433Z,85.35
2022-10-23T23:28:22.527Z,85.43
2022-10-23T23:30:49.654Z,85.94
2022-10-23T23:33:23.919Z,86.22
2022-10-23T23:35:50.629Z,87.06
2022-10-23T23:38:17.282Z,87.25
2022-10-23T23:40:51.717Z,87.35
2022-10-23T23:43:18.682Z,87.59
2022-10-23T23:45:45.881Z,87.47
2022-10-23T23:48:12.621Z,87.44
2022-10-23T23:50:39.351Z,87.15
2022-10-23T23:53:06.025Z,86.94
2022-10-23T23:55:33.125Z,87.15
2022-10-23T23:57:59.874Z,87.16
